sensor_id;sensor_type;location;lat;lon;timestamp;pressure;altitude;pressure_sealevel;temperature;humidity
75646;BME280;64237;52.438;13.240;2023-01-29T00:01:54;102299.97;;;0.40;73.56
75646;BME280;64237;52.438;13.240;2023-01-29T00:04:20;102284.09;;;0.55;71.13
75646;BME280;64237;52.438;13.240;2023-01-29T00:06:45;102289.63;;;0.44;72.15
75646;BME280;64237;52.438;13.240;2023-01-29T00:09:11;102292.78;;;0.39;73.54
75646;BME280;64237;52.438;13.240;2023-01-29T00:11:38;102290.69;;;0.12;72.99
75646;BME280;64237;52.438;13.240;2023-01-29T00:14:03;102289.31;;;0.27;74.03
75646;BME280;64237;52.438;13.240;2023-01-29T00:16:29;102283.00;;;0.27;72.37
75646;BME280;64237;52.438;13.240;2023-01-29T00:18:54;102292.75;;;0.29;72.43
75646;BME280;64237;52.438;13.240;2023-01-29T00:21:20;102292.59;;;0.31;73.34
75646;BME280;64237;52.438;13.240;2023-01-29T00:23:46;102290.69;;;0.12;72.65
75646;BME280;64237;52.438;13.240;2023-01-29T00:26:13;102288.72;;;0.24;73.92
75646;BME280;64237;52.438;13.240;2023-01-29T00:28:38;102276.72;;;0.36;73.03
75646;BME280;64237;52.438;13.240;2023-01-29T00:31:13;102274.44;;;0.31;72.28
75646;BME280;64237;52.438;13.240;2023-01-29T00:33:39;102282.31;;;0.44;72.53
75646;BME280;64237;52.438;13.240;2023-01-29T00:36:06;102277.81;;;0.24;73.30
75646;BME280;64237;52.438;13.240;2023-01-29T00:38:33;102281.63;;;0.42;73.91
75646;BME280;64237;52.438;13.240;2023-01-29T00:41:06;102272.97;;;0.27;72.60
75646;BME280;64237;52.438;13.240;2023-01-29T00:43:50;102263.56;;;0.41;72.65
75646;BME280;64237;52.438;13.240;2023-01-29T00:46:34;102260.13;;;0.49;72.14
75646;BME280;64237;52.438;13.240;2023-01-29T00:49:00;102246.38;;;0.41;71.49
75646;BME280;64237;52.438;13.240;2023-01-29T00:51:25;102250.72;;;0.62;72.32
75646;BME280;64237;52.438;13.240;2023-01-29T00:53:51;102255.31;;;0.62;72.55
75646;BME280;64237;52.438;13.240;2023-01-29T00:56:16;102245.41;;;0.71;72.34
75646;BME280;64237;52.438;13.240;2023-01-29T00:58:41;102251.28;;;0.66;71.00
75646;BME280;64237;52.438;13.240;2023-01-29T01:01:06;102245.81;;;0.56;71.96
75646;BME280;64237;52.438;13.240;2023-01-29T01:03:32;102262.13;;;0.37;73.58
75646;BME280;64237;52.438;13.240;2023-01-29T01:06:06;102256.97;;;0.34;73.53
75646;BME280;64237;52.438;13.240;2023-01-29T01:08:32;102242.34;;;0.35;73.46
75646;BME280;64237;52.438;13.240;2023-01-29T01:11:16;102249.97;;;0.41;73.50
75646;BME280;64237;52.438;13.240;2023-01-29T01:13:41;102255.56;;;0.49;73.92
75646;BME280;64237;52.438;13.240;2023-01-29T01:16:15;102248.41;;;0.58;73.78
75646;BME280;64237;52.438;13.240;2023-01-29T01:18:41;102256.97;;;0.34;73.17
75646;BME280;64237;52.438;13.240;2023-01-29T01:21:07;102256.97;;;0.34;73.71
75646;BME280;64237;52.438;13.240;2023-01-29T01:23:33;102249.25;;;0.49;74.05
75646;BME280;64237;52.438;13.240;2023-01-29T01:25:59;102250.97;;;0.50;73.07
75646;BME280;64237;52.438;13.240;2023-01-29T01:28:25;102246.94;;;0.44;73.51
75646;BME280;64237;52.438;13.240;2023-01-29T01:30:50;102253.00;;;0.57;74.55
75646;BME280;64237;52.438;13.240;2023-01-29T01:33:15;102247.00;;;0.63;73.45
75646;BME280;64237;52.438;13.240;2023-01-29T01:35:41;102241.09;;;0.58;73.10
75646;BME280;64237;52.438;13.240;2023-01-29T01:38:06;102243.38;;;0.53;74.27
75646;BME280;64237;52.438;13.240;2023-01-29T01:40:31;102247.25;;;0.41;74.67
75646;BME280;64237;52.438;13.240;2023-01-29T01:42:59;102253.59;;;0.61;73.41
75646;BME280;64237;52.438;13.240;2023-01-29T01:45:33;102244.66;;;0.49;74.20
75646;BME280;64237;52.438;13.240;2023-01-29T01:48:14;102258.13;;;0.41;73.28
75646;BME280;64237;52.438;13.240;2023-01-29T01:50:45;102263.56;;;0.41;74.18
75646;BME280;64237;52.438;13.240;2023-01-29T01:53:14;102262.94;;;0.28;73.85
75646;BME280;64237;52.438;13.240;2023-01-29T01:55:49;102263.50;;;0.22;74.07
75646;BME280;64237;52.438;13.240;2023-01-29T01:58:23;102250.94;;;0.30;75.55
75646;BME280;64237;52.438;13.240;2023-01-29T02:00:50;102247.38;;;0.49;74.71
75646;BME280;64237;52.438;13.240;2023-01-29T02:03:18;102239.66;;;0.54;73.54
75646;BME280;64237;52.438;13.240;2023-01-29T02:06:03;102240.34;;;0.47;73.83
75646;BME280;64237;52.438;13.240;2023-01-29T02:08:54;102228.78;;;0.54;73.69
75646;BME280;64237;52.438;13.240;2023-01-29T02:11:40;102229.94;;;0.61;74.73
75646;BME280;64237;52.438;13.240;2023-01-29T02:14:05;102240.38;;;0.66;73.85
75646;BME280;64237;52.438;13.240;2023-01-29T02:16:33;102230.19;;;0.49;73.78
75646;BME280;64237;52.438;13.240;2023-01-29T02:19:00;102221.31;;;0.56;74.09
75646;BME280;64237;52.438;13.240;2023-01-29T02:30:21;102202.84;;;0.69;73.80
75646;BME280;64237;52.438;13.240;2023-01-29T02:33:04;102208.28;;;0.69;75.38
75646;BME280;64237;52.438;13.240;2023-01-29T02:35:45;102203.97;;;0.67;73.92
75646;BME280;64237;52.438;13.240;2023-01-29T02:38:56;102211.72;;;0.72;73.73
75646;BME280;64237;52.438;13.240;2023-01-29T02:41:26;102227.22;;;0.61;74.30
75646;BME280;64237;52.438;13.240;2023-01-29T02:43:58;102220.91;;;0.61;74.87
75646;BME280;64237;52.438;13.240;2023-01-29T02:49:37;102222.63;;;0.62;74.81
75646;BME280;64237;52.438;13.240;2023-01-29T02:52:20;102214.19;;;0.65;74.55
75646;BME280;64237;52.438;13.240;2023-01-29T02:54:54;102217.16;;;0.52;74.61
75646;BME280;64237;52.438;13.240;2023-01-29T02:57:29;102208.88;;;0.63;74.53
75646;BME280;64237;52.438;13.240;2023-01-29T03:00:07;102202.41;;;0.74;74.24
75646;BME280;64237;52.438;13.240;2023-01-29T03:02:38;102202.56;;;0.73;74.18
75646;BME280;64237;52.438;13.240;2023-01-29T03:05:10;102187.50;;;0.49;74.95
75646;BME280;64237;52.438;13.240;2023-01-29T03:07:42;102198.97;;;0.53;74.96
75646;BME280;64237;52.438;13.240;2023-01-29T03:10:26;102205.44;;;0.61;74.89
75646;BME280;64237;52.438;13.240;2023-01-29T03:12:57;102204.56;;;0.61;74.57
75646;BME280;64237;52.438;13.240;2023-01-29T03:15:33;102197.38;;;0.50;75.64
75646;BME280;64237;52.438;13.240;2023-01-29T03:18:16;102203.44;;;0.63;75.23
75646;BME280;64237;52.438;13.240;2023-01-29T03:20:50;102207.13;;;0.43;74.83
75646;BME280;64237;52.438;13.240;2023-01-29T03:23:21;102210.00;;;0.61;75.70
75646;BME280;64237;52.438;13.240;2023-01-29T03:25:53;102189.38;;;0.58;75.07
75646;BME280;64237;52.438;13.240;2023-01-29T03:28:43;102197.38;;;0.69;74.81
75646;BME280;64237;52.438;13.240;2023-01-29T03:31:29;102193.22;;;0.65;75.38
75646;BME280;64237;52.438;13.240;2023-01-29T03:34:17;102195.97;;;0.85;75.35
75646;BME280;64237;52.438;13.240;2023-01-29T03:36:56;102185.94;;;0.76;74.54
75646;BME280;64237;52.438;13.240;2023-01-29T03:39:26;102178.03;;;0.53;75.83
75646;BME280;64237;52.438;13.240;2023-01-29T03:42:03;102175.47;;;0.61;76.25
75646;BME280;64237;52.438;13.240;2023-01-29T03:44:53;102181.59;;;0.44;75.52
75646;BME280;64237;52.438;13.240;2023-01-29T03:47:30;102178.88;;;0.44;75.39
75646;BME280;64237;52.438;13.240;2023-01-29T03:50:08;102171.75;;;0.43;76.08
75646;BME280;64237;52.438;13.240;2023-01-29T03:52:39;102164.16;;;0.56;76.16
75646;BME280;64237;52.438;13.240;2023-01-29T03:58:16;102156.13;;;0.45;75.31
75646;BME280;64237;52.438;13.240;2023-01-29T04:03:20;102145.25;;;0.55;75.63
75646;BME280;64237;52.438;13.240;2023-01-29T04:05:53;102138.09;;;0.63;76.15
75646;BME280;64237;52.438;13.240;2023-01-29T04:08:28;102120.84;;;0.73;76.06
75646;BME280;64237;52.438;13.240;2023-01-29T04:10:56;102115.44;;;0.53;75.09
75646;BME280;64237;52.438;13.240;2023-01-29T04:13:23;102114.84;;;0.50;75.94
75646;BME280;64237;52.438;13.240;2023-01-29T04:15:54;102105.97;;;0.48;76.68
75646;BME280;64237;52.438;13.240;2023-01-29T04:18:20;102104.84;;;0.50;76.28
75646;BME280;64237;52.438;13.240;2023-01-29T04:20:46;102096.25;;;0.64;77.07
75646;BME280;64237;52.438;13.240;2023-01-29T04:23:22;102100.78;;;0.74;76.67
75646;BME280;64237;52.438;13.240;2023-01-29T04:31:55;102086.78;;;0.49;77.49
75646;BME280;64237;52.438;13.240;2023-01-29T04:34:28;102085.50;;;0.53;78.60
75646;BME280;64237;52.438;13.240;2023-01-29T04:37:11;102076.72;;;0.69;78.23
75646;BME280;64237;52.438;13.240;2023-01-29T04:42:30;102074.59;;;0.44;78.66
75646;BME280;64237;52.438;13.240;2023-01-29T04:46:04;102080.19;;;0.61;79.08
75646;BME280;64237;52.438;13.240;2023-01-29T04:50:51;102090.19;;;0.71;78.49
75646;BME280;64237;52.438;13.240;2023-01-29T04:53:38;102081.34;;;0.49;78.98
75646;BME280;64237;52.438;13.240;2023-01-29T04:58:49;102080.47;;;0.58;78.63
75646;BME280;64237;52.438;13.240;2023-01-29T05:01:18;102078.72;;;0.67;78.26
75646;BME280;64237;52.438;13.240;2023-01-29T05:03:49;102073.56;;;0.74;77.43
75646;BME280;64237;52.438;13.240;2023-01-29T05:06:16;102077.28;;;0.73;78.23
75646;BME280;64237;52.438;13.240;2023-01-29T05:08:43;102075.31;;;0.65;78.98
75646;BME280;64237;52.438;13.240;2023-01-29T05:11:09;102081.81;;;0.91;78.12
75646;BME280;64237;52.438;13.240;2023-01-29T05:13:37;102089.28;;;0.89;78.14
75646;BME280;64237;52.438;13.240;2023-01-29T05:16:07;102089.84;;;0.93;78.21
75646;BME280;64237;52.438;13.240;2023-01-29T05:18:34;102086.13;;;0.94;79.80
75646;BME280;64237;52.438;13.240;2023-01-29T05:21:02;102089.56;;;0.96;80.76
75646;BME280;64237;52.438;13.240;2023-01-29T05:23:28;102081.69;;;0.93;82.29
75646;BME280;64237;52.438;13.240;2023-01-29T05:25:55;102086.19;;;0.75;82.45
75646;BME280;64237;52.438;13.240;2023-01-29T05:28:21;102092.63;;;0.83;82.37
75646;BME280;64237;52.438;13.240;2023-01-29T05:30:49;102079.88;;;0.84;83.34
75646;BME280;64237;52.438;13.240;2023-01-29T05:33:29;102084.69;;;0.90;83.43
75646;BME280;64237;52.438;13.240;2023-01-29T05:35:57;102084.91;;;0.59;84.47
75646;BME280;64237;52.438;13.240;2023-01-29T05:38:22;102085.88;;;0.78;85.10
75646;BME280;64237;52.438;13.240;2023-01-29T05:40:48;102086.34;;;0.63;84.75
75646;BME280;64237;52.438;13.240;2023-01-29T05:43:22;102096.53;;;0.61;84.96
75646;BME280;64237;52.438;13.240;2023-01-29T05:45:56;102096.25;;;0.64;85.20
75646;BME280;64237;52.438;13.240;2023-01-29T05:48:23;102097.94;;;0.65;84.86
75646;BME280;64237;52.438;13.240;2023-01-29T05:50:49;102094.78;;;0.70;85.57
75646;BME280;64237;52.438;13.240;2023-01-29T05:53:15;102101.31;;;0.87;85.82
75646;BME280;64237;52.438;13.240;2023-01-29T05:55:46;102098.78;;;0.85;85.19
75646;BME280;64237;52.438;13.240;2023-01-29T05:58:12;102108.22;;;0.91;84.98
75646;BME280;64237;52.438;13.240;2023-01-29T06:00:38;102102.81;;;0.72;84.74
75646;BME280;64237;52.438;13.240;2023-01-29T06:03:04;102114.56;;;0.72;85.05
75646;BME280;64237;52.438;13.240;2023-01-29T06:05:29;102116.53;;;0.89;84.02
75646;BME280;64237;52.438;13.240;2023-01-29T06:07:55;102111.59;;;1.12;84.94
75646;BME280;64237;52.438;13.240;2023-01-29T06:10:20;102106.09;;;0.85;84.34
75646;BME280;64237;52.438;13.240;2023-01-29T06:12:46;102130.28;;;0.88;85.03
75646;BME280;64237;52.438;13.240;2023-01-29T06:15:11;102122.44;;;0.65;85.38
75646;BME280;64237;52.438;13.240;2023-01-29T06:17:37;102115.69;;;0.69;85.68
75646;BME280;64237;52.438;13.240;2023-01-29T06:20:03;102130.47;;;0.57;85.81
75646;BME280;64237;52.438;13.240;2023-01-29T06:22:29;102132.00;;;0.89;86.33
75646;BME280;64237;52.438;13.240;2023-01-29T06:24:54;102127.13;;;0.92;84.89
75646;BME280;64237;52.438;13.240;2023-01-29T06:27:20;102125.72;;;0.79;84.36
75646;BME280;64237;52.438;13.240;2023-01-29T06:29:45;102119.53;;;0.96;84.98
75646;BME280;64237;52.438;13.240;2023-01-29T06:32:10;102106.78;;;0.87;84.76
75646;BME280;64237;52.438;13.240;2023-01-29T06:34:36;102109.34;;;0.88;83.60
75646;BME280;64237;52.438;13.240;2023-01-29T06:37:03;102121.81;;;1.00;83.80
75646;BME280;64237;52.438;13.240;2023-01-29T06:39:28;102118.53;;;0.97;85.09
75646;BME280;64237;52.438;13.240;2023-01-29T06:41:54;102117.22;;;1.01;84.58
75646;BME280;64237;52.438;13.240;2023-01-29T06:44:19;102117.34;;;1.09;83.82
75646;BME280;64237;52.438;13.240;2023-01-29T06:46:45;102118.75;;;1.13;84.46
75646;BME280;64237;52.438;13.240;2023-01-29T06:49:10;102120.38;;;0.96;84.64
75646;BME280;64237;52.438;13.240;2023-01-29T06:51:35;102125.88;;;0.77;84.09
75646;BME280;64237;52.438;13.240;2023-01-29T06:54:01;102126.88;;;0.86;84.26
75646;BME280;64237;52.438;13.240;2023-01-29T06:56:26;102127.13;;;1.02;84.40
75646;BME280;64237;52.438;13.240;2023-01-29T06:58:51;102133.16;;;0.96;84.04
75646;BME280;64237;52.438;13.240;2023-01-29T07:01:17;102132.81;;;1.09;83.63
75646;BME280;64237;52.438;13.240;2023-01-29T07:03:42;102116.47;;;1.09;84.04
75646;BME280;64237;52.438;13.240;2023-01-29T07:06:08;102108.28;;;1.09;84.12
75646;BME280;64237;52.438;13.240;2023-01-29T07:08:38;102110.78;;;1.02;83.35
75646;BME280;64237;52.438;13.240;2023-01-29T07:11:05;102113.38;;;0.94;83.94
75646;BME280;64237;52.438;13.240;2023-01-29T07:13:31;102110.59;;;1.13;83.34
75646;BME280;64237;52.438;13.240;2023-01-29T07:15:58;102115.09;;;0.95;83.61
75646;BME280;64237;52.438;13.240;2023-01-29T07:18:24;102113.03;;;1.16;83.98
75646;BME280;64237;52.438;13.240;2023-01-29T07:20:49;102100.09;;;1.18;83.84
75646;BME280;64237;52.438;13.240;2023-01-29T07:23:15;102100.94;;;1.28;84.57
75646;BME280;64237;52.438;13.240;2023-01-29T07:25:41;102109.50;;;1.33;82.91
75646;BME280;64237;52.438;13.240;2023-01-29T07:28:07;102116.66;;;1.07;83.68
75646;BME280;64237;52.438;13.240;2023-01-29T07:30:33;102111.22;;;0.97;84.15
75646;BME280;64237;52.438;13.240;2023-01-29T07:33:06;102119.38;;;1.07;84.33
75646;BME280;64237;52.438;13.240;2023-01-29T07:35:36;102121.38;;;1.05;84.21
75646;BME280;64237;52.438;13.240;2023-01-29T07:38:02;102119.63;;;1.14;84.82
75646;BME280;64237;52.438;13.240;2023-01-29T07:40:27;102121.91;;;1.18;84.24
75646;BME280;64237;52.438;13.240;2023-01-29T07:43:00;102118.25;;;1.00;84.45
75646;BME280;64237;52.438;13.240;2023-01-29T07:45:27;102119.63;;;1.14;84.45
75646;BME280;64237;52.438;13.240;2023-01-29T07:47:53;102106.28;;;1.11;84.67
75646;BME280;64237;52.438;13.240;2023-01-29T07:50:22;102102.75;;;1.00;84.93
75646;BME280;64237;52.438;13.240;2023-01-29T07:52:50;102091.66;;;1.12;84.48
75646;BME280;64237;52.438;13.240;2023-01-29T07:55:16;102081.97;;;0.90;85.29
75646;BME280;64237;52.438;13.240;2023-01-29T07:57:41;102075.53;;;0.91;85.44
75646;BME280;64237;52.438;13.240;2023-01-29T08:00:08;102081.75;;;1.11;85.23
75646;BME280;64237;52.438;13.240;2023-01-29T08:02:34;102079.75;;;1.13;85.76
75646;BME280;64237;52.438;13.240;2023-01-29T08:04:59;102080.16;;;0.81;85.98
75646;BME280;64237;52.438;13.240;2023-01-29T08:07:24;102087.84;;;0.95;86.40
75646;BME280;64237;52.438;13.240;2023-01-29T08:09:50;102093.00;;;0.98;85.94
75646;BME280;64237;52.438;13.240;2023-01-29T08:12:21;102088.41;;;1.08;86.08
75646;BME280;64237;52.438;13.240;2023-01-29T08:14:50;102080.75;;;1.12;86.16
75646;BME280;64237;52.438;13.240;2023-01-29T08:17:21;102067.13;;;1.12;86.17
75646;BME280;64237;52.438;13.240;2023-01-29T08:19:46;102067.19;;;1.02;86.41
75646;BME280;64237;52.438;13.240;2023-01-29T08:22:12;102075.06;;;1.05;86.51
75646;BME280;64237;52.438;13.240;2023-01-29T08:24:39;102061.84;;;1.10;86.73
75646;BME280;64237;52.438;13.240;2023-01-29T08:27:04;102063.59;;;1.38;86.45
75646;BME280;64237;52.438;13.240;2023-01-29T08:29:30;102059.09;;;1.10;86.44
75646;BME280;64237;52.438;13.240;2023-01-29T08:31:55;102066.91;;;1.32;86.83
75646;BME280;64237;52.438;13.240;2023-01-29T08:34:20;102067.47;;;1.36;86.97
75646;BME280;64237;52.438;13.240;2023-01-29T08:36:46;102065.41;;;1.48;86.18
75646;BME280;64237;52.438;13.240;2023-01-29T08:39:11;102061.47;;;1.60;86.13
75646;BME280;64237;52.438;13.240;2023-01-29T08:41:36;102068.44;;;1.45;85.01
75646;BME280;64237;52.438;13.240;2023-01-29T08:44:02;102073.63;;;1.38;86.45
75646;BME280;64237;52.438;13.240;2023-01-29T08:46:28;102075.41;;;1.29;87.22
75646;BME280;64237;52.438;13.240;2023-01-29T08:48:54;102080.25;;;1.35;85.81
75646;BME280;64237;52.438;13.240;2023-01-29T08:51:20;102071.88;;;1.47;86.40
75646;BME280;64237;52.438;13.240;2023-01-29T08:53:45;102072.88;;;1.46;85.85
75646;BME280;64237;52.438;13.240;2023-01-29T08:56:11;102073.38;;;1.59;86.76
75646;BME280;64237;52.438;13.240;2023-01-29T08:58:36;102065.66;;;1.54;85.42
75646;BME280;64237;52.438;13.240;2023-01-29T09:01:09;102067.63;;;1.34;85.92
75646;BME280;64237;52.438;13.240;2023-01-29T09:03:35;102064.41;;;1.49;85.67
75646;BME280;64237;52.438;13.240;2023-01-29T09:06:01;102063.31;;;1.59;86.44
75646;BME280;64237;52.438;13.240;2023-01-29T09:08:27;102066.34;;;1.56;84.72
75646;BME280;64237;52.438;13.240;2023-01-29T09:10:52;102066.38;;;1.74;85.93
75646;BME280;64237;52.438;13.240;2023-01-29T09:13:18;102046.69;;;1.80;84.74
75646;BME280;64237;52.438;13.240;2023-01-29T09:15:43;102041.72;;;1.93;84.35
75646;BME280;64237;52.438;13.240;2023-01-29T09:18:09;102054.84;;;1.62;83.95
75646;BME280;64237;52.438;13.240;2023-01-29T09:20:34;102060.84;;;1.66;85.26
75646;BME280;64237;52.438;13.240;2023-01-29T09:23:06;102061.75;;;1.84;85.61
75646;BME280;64237;52.438;13.240;2023-01-29T09:25:32;102050.13;;;1.82;83.32
75646;BME280;64237;52.438;13.240;2023-01-29T09:27:58;102055.47;;;1.74;83.85
75646;BME280;64237;52.438;13.240;2023-01-29T09:30:23;102054.38;;;1.94;82.87
75646;BME280;64237;52.438;13.240;2023-01-29T09:32:48;102055.97;;;1.87;82.90
75646;BME280;64237;52.438;13.240;2023-01-29T09:35:14;102048.91;;;1.94;83.60
75646;BME280;64237;52.438;13.240;2023-01-29T09:37:39;102041.72;;;1.93;82.44
75646;BME280;64237;52.438;13.240;2023-01-29T09:40:05;102038.91;;;1.85;83.25
75646;BME280;64237;52.438;13.240;2023-01-29T09:42:41;102037.75;;;1.88;83.30
75646;BME280;64237;52.438;13.240;2023-01-29T09:47:35;102033.16;;;1.88;82.36
75646;BME280;64237;52.438;13.240;2023-01-29T09:52:41;102024.41;;;2.02;83.37
75646;BME280;64237;52.438;13.240;2023-01-29T09:55:27;102022.06;;;2.08;82.72
75646;BME280;64237;52.438;13.240;2023-01-29T09:58:11;102022.84;;;2.18;81.36
75646;BME280;64237;52.438;13.240;2023-01-29T10:00:39;102020.09;;;2.35;81.25
75646;BME280;64237;52.438;13.240;2023-01-29T10:03:26;102011.19;;;2.51;80.59
75646;BME280;64237;52.438;13.240;2023-01-29T10:06:24;101993.16;;;2.58;80.99
75646;BME280;64237;52.438;13.240;2023-01-29T10:20:38;101967.38;;;2.95;79.76
75646;BME280;64237;52.438;13.240;2023-01-29T10:25:45;101971.38;;;2.74;77.75
75646;BME280;64237;52.438;13.240;2023-01-29T10:28:17;101971.09;;;2.86;78.39
75646;BME280;64237;52.438;13.240;2023-01-29T10:30:47;101991.56;;;2.82;77.64
75646;BME280;64237;52.438;13.240;2023-01-29T10:33:27;101988.31;;;3.12;78.73
75646;BME280;64237;52.438;13.240;2023-01-29T10:35:58;101981.81;;;3.13;76.59
75646;BME280;64237;52.438;13.240;2023-01-29T10:38:47;101986.69;;;3.35;75.63
75646;BME280;64237;52.438;13.240;2023-01-29T10:41:43;101972.03;;;3.53;75.26
75646;BME280;64237;52.438;13.240;2023-01-29T10:44:35;101972.56;;;3.56;73.95
75646;BME280;64237;52.438;13.240;2023-01-29T11:02:35;101940.59;;;3.57;74.74
75646;BME280;64237;52.438;13.240;2023-01-29T11:05:00;101943.34;;;3.65;74.38
75646;BME280;64237;52.438;13.240;2023-01-29T11:07:26;101930.69;;;3.64;74.85
75646;BME280;64237;52.438;13.240;2023-01-29T11:09:59;101924.50;;;3.54;75.13
75646;BME280;64237;52.438;13.240;2023-01-29T11:12:28;101928.31;;;3.77;74.51
75646;BME280;64237;52.438;13.240;2023-01-29T11:15:14;101924.91;;;3.67;73.55
75646;BME280;64237;52.438;13.240;2023-01-29T11:18:10;101913.94;;;3.75;73.37
75646;BME280;64237;52.438;13.240;2023-01-29T11:20:39;101909.13;;;3.53;73.74
75646;BME280;64237;52.438;13.240;2023-01-29T11:23:05;101903.34;;;3.64;74.37
75646;BME280;64237;52.438;13.240;2023-01-29T11:25:30;101906.06;;;3.56;73.47
75646;BME280;64237;52.438;13.240;2023-01-29T11:28:00;101910.53;;;3.65;73.75
75646;BME280;64237;52.438;13.240;2023-01-29T11:30:37;101900.94;;;3.69;74.81
75646;BME280;64237;52.438;13.240;2023-01-29T11:35:34;101894.78;;;3.59;73.68
75646;BME280;64237;52.438;13.240;2023-01-29T11:38:17;101892.72;;;3.61;73.64
75646;BME280;64237;52.438;13.240;2023-01-29T11:40:43;101891.19;;;3.66;72.85
75646;BME280;64237;52.438;13.240;2023-01-29T11:43:29;101884.50;;;3.69;72.45
75646;BME280;64237;52.438;13.240;2023-01-29T11:46:00;101872.38;;;3.71;71.97
75646;BME280;64237;52.438;13.240;2023-01-29T11:48:40;101874.41;;;3.69;73.08
75646;BME280;64237;52.438;13.240;2023-01-29T11:51:07;101866.03;;;3.71;72.83
75646;BME280;64237;52.438;13.240;2023-01-29T11:53:48;101871.19;;;3.74;72.24
75646;BME280;64237;52.438;13.240;2023-01-29T11:56:32;101879.75;;;3.79;72.89
75646;BME280;64237;52.438;13.240;2023-01-29T11:59:00;101860.06;;;3.84;73.43
75646;BME280;64237;52.438;13.240;2023-01-29T12:01:35;101866.06;;;3.87;72.21
75646;BME280;64237;52.438;13.240;2023-01-29T12:04:02;101868.13;;;3.85;72.34
75646;BME280;64237;52.438;13.240;2023-01-29T12:06:36;101868.25;;;3.92;73.38
75646;BME280;64237;52.438;13.240;2023-01-29T12:09:14;101851.34;;;3.72;72.07
75646;BME280;64237;52.438;13.240;2023-01-29T12:11:40;101850.31;;;3.81;73.77
75646;BME280;64237;52.438;13.240;2023-01-29T12:14:29;101845.88;;;3.88;71.46
75646;BME280;64237;52.438;13.240;2023-01-29T12:17:12;101853.72;;;3.75;72.05
75646;BME280;64237;52.438;13.240;2023-01-29T12:19:54;101831.16;;;3.73;71.73
75646;BME280;64237;52.438;13.240;2023-01-29T12:25:06;101840.41;;;3.88;72.08
75646;BME280;64237;52.438;13.240;2023-01-29T12:27:48;101832.84;;;3.90;72.72
75646;BME280;64237;52.438;13.240;2023-01-29T12:31:09;101830.81;;;3.84;73.77
75646;BME280;64237;52.438;13.240;2023-01-29T12:38:43;101823.66;;;3.59;72.62
75646;BME280;64237;52.438;13.240;2023-01-29T12:43:51;101810.97;;;3.74;74.38
75646;BME280;64237;52.438;13.240;2023-01-29T12:46:32;101796.78;;;3.70;73.10
75646;BME280;64237;52.438;13.240;2023-01-29T12:49:02;101783.66;;;3.66;73.24
75646;BME280;64237;52.438;13.240;2023-01-29T12:51:35;101771.63;;;3.83;72.81
75646;BME280;64237;52.438;13.240;2023-01-29T12:54:12;101776.59;;;3.79;72.50
75646;BME280;64237;52.438;13.240;2023-01-29T12:56:42;101793.88;;;3.80;72.20
75646;BME280;64237;52.438;13.240;2023-01-29T12:59:16;101789.25;;;3.81;72.67
75646;BME280;64237;52.438;13.240;2023-01-29T13:01:49;101789.44;;;3.71;72.47
75646;BME280;64237;52.438;13.240;2023-01-29T13:04:39;101781.53;;;3.92;72.46
75646;BME280;64237;52.438;13.240;2023-01-29T13:07:13;101787.31;;;4.05;72.45
75646;BME280;64237;52.438;13.240;2023-01-29T13:09:42;101787.84;;;3.93;72.85
75646;BME280;64237;52.438;13.240;2023-01-29T13:12:15;101782.59;;;3.83;72.50
75646;BME280;64237;52.438;13.240;2023-01-29T13:19:59;101775.88;;;3.94;72.53
75646;BME280;64237;52.438;13.240;2023-01-29T13:22:32;101780.66;;;3.92;73.65
75646;BME280;64237;52.438;13.240;2023-01-29T13:24:58;101773.00;;;3.87;73.01
75646;BME280;64237;52.438;13.240;2023-01-29T13:27:27;101760.53;;;3.68;73.00
75646;BME280;64237;52.438;13.240;2023-01-29T13:29:54;101770.63;;;3.76;73.23
75646;BME280;64237;52.438;13.240;2023-01-29T13:32:26;101773.00;;;3.71;73.43
75646;BME280;64237;52.438;13.240;2023-01-29T13:34:55;101776.44;;;3.73;74.01
75646;BME280;64237;52.438;13.240;2023-01-29T13:37:47;101777.66;;;3.54;73.06
75646;BME280;64237;52.438;13.240;2023-01-29T13:40:23;101773.03;;;3.38;73.64
75646;BME280;64237;52.438;13.240;2023-01-29T13:42:50;101767.72;;;3.29;74.01
75646;BME280;64237;52.438;13.240;2023-01-29T13:47:44;101761.06;;;3.31;74.88
75646;BME280;64237;52.438;13.240;2023-01-29T13:50:31;101765.84;;;3.29;74.91
75646;BME280;64237;52.438;13.240;2023-01-29T13:53:01;101757.66;;;3.29;75.33
75646;BME280;64237;52.438;13.240;2023-01-29T13:55:31;101771.00;;;3.40;75.62
75646;BME280;64237;52.438;13.240;2023-01-29T13:58:12;101758.69;;;3.20;75.78
75646;BME280;64237;52.438;13.240;2023-01-29T14:13:46;101742.47;;;3.19;79.51
75646;BME280;64237;52.438;13.240;2023-01-29T14:18:57;101746.75;;;3.21;78.30
75646;BME280;64237;52.438;13.240;2023-01-29T14:21:30;101748.44;;;3.14;79.78
75646;BME280;64237;52.438;13.240;2023-01-29T14:24:16;101743.31;;;3.11;80.30
75646;BME280;64237;52.438;13.240;2023-01-29T14:26:44;101743.81;;;3.06;79.88
75646;BME280;64237;52.438;13.240;2023-01-29T14:34:18;101738.88;;;3.18;81.68
75646;BME280;64237;52.438;13.240;2023-01-29T14:36:46;101736.78;;;2.88;81.26
75646;BME280;64237;52.438;13.240;2023-01-29T14:41:55;101728.72;;;2.70;81.71
75646;BME280;64237;52.438;13.240;2023-01-29T14:53:11;101724.47;;;2.75;81.45
75646;BME280;64237;52.438;13.240;2023-01-29T14:55:47;101713.53;;;2.67;83.13
75646;BME280;64237;52.438;13.240;2023-01-29T14:58:17;101717.31;;;2.83;83.57
75646;BME280;64237;52.438;13.240;2023-01-29T15:00:45;101710.50;;;2.79;82.59
75646;BME280;64237;52.438;13.240;2023-01-29T15:05:53;101698.19;;;2.74;82.96
75646;BME280;64237;52.438;13.240;2023-01-29T15:08:31;101698.50;;;2.55;82.95
75646;BME280;64237;52.438;13.240;2023-01-29T15:11:02;101693.38;;;2.60;82.56
75646;BME280;64237;52.438;13.240;2023-01-29T15:14:21;101700.50;;;2.37;83.56